Time;durP1;ratioP1;P1;durP2;ratioP2;P2;SDS_P1;SDS_P2;PMS_P1;PMS_P2;Temp;Humidity;BMP_temperature;BMP_pressure;BME280_temperature;BME280_humidity;BME280_pressure;Samples;Min_cycle;Max_cycle;Signal;HPM_P1;HPM_P2
2022/11/12 00:00:26;;;;;;;15.38;8.55;;;;;;;;;;6101740;23;20082;-91
2022/11/12 00:02:52;;;;;;;12.23;8.30;;;;;;;;;;6101775;23;20014;-91
2022/11/12 00:05:18;;;;;;;12.73;9.15;;;;;;;;;;6101805;23;20109;-91
2022/11/12 00:07:44;;;;;;;14.98;9.25;;;;;;;;;;6078572;23;20018;-92
2022/11/12 00:10:10;;;;;;;18.00;9.65;;;;;;;;;;6101569;23;20066;-91
2022/11/12 00:12:36;;;;;;;13.93;8.88;;;;;;;;;;6077640;23;20018;-90
2022/11/12 00:15:03;;;;;;;14.90;7.97;;;;;;;;;;6101717;23;20021;-91
2022/11/12 00:17:29;;;;;;;16.05;8.82;;;;;;;;;;6101579;23;20352;-92
2022/11/12 00:19:55;;;;;;;13.27;9.60;;;;;;;;;;6077613;23;20024;-91
2022/11/12 00:22:21;;;;;;;14.05;8.15;;;;;;;;;;6077606;23;20053;-91
2022/11/12 00:24:47;;;;;;;11.90;9.27;;;;;;;;;;6077571;23;20018;-90
2022/11/12 00:27:13;;;;;;;12.48;8.80;;;;;;;;;;6077803;23;20025;-91
2022/11/12 00:29:39;;;;;;;12.70;8.85;;;;;;;;;;6077323;23;20096;-91
2022/11/12 00:32:06;;;;;;;12.20;8.07;;;;;;;;;;6077389;23;20024;-92
2022/11/12 00:34:32;;;;;;;12.40;9.40;;;;;;;;;;6101449;23;20022;-89
2022/11/12 00:36:59;;;;;;;14.45;9.05;;;;;;;;;;6102025;23;20026;-96
2022/11/12 00:39:25;;;;;;;12.25;8.85;;;;;;;;;;6077436;23;20359;-90
2022/11/12 00:41:51;;;;;;;12.55;9.23;;;;;;;;;;6102089;23;20013;-91
2022/11/12 00:44:17;;;;;;;13.27;8.85;;;;;;;;;;6127388;23;20064;-91
2022/11/12 00:46:43;;;;;;;13.43;9.10;;;;;;;;;;6101573;23;20014;-91
2022/11/12 00:49:10;;;;;;;14.30;8.85;;;;;;;;;;6128479;23;20022;-90
2022/11/12 00:51:36;;;;;;;12.85;8.98;;;;;;;;;;6127253;23;20018;-93
2022/11/12 00:54:02;;;;;;;11.52;9.05;;;;;;;;;;6077811;23;20084;-92
2022/11/12 00:56:28;;;;;;;13.23;9.40;;;;;;;;;;6077843;23;20049;-91
2022/11/12 00:58:54;;;;;;;12.80;8.88;;;;;;;;;;6101694;23;20028;-93
2022/11/12 01:01:20;;;;;;;13.63;9.27;;;;;;;;;;6101731;23;20024;-92
2022/11/12 01:03:46;;;;;;;15.27;9.73;;;;;;;;;;6077665;23;20018;-94
2022/11/12 01:06:13;;;;;;;13.73;9.52;;;;;;;;;;6078056;23;20037;-94
2022/11/12 01:08:39;;;;;;;13.73;9.75;;;;;;;;;;6078563;23;20022;-93
2022/11/12 01:11:06;;;;;;;14.30;9.48;;;;;;;;;;6078097;23;20026;-93
2022/11/12 01:13:33;;;;;;;16.13;9.93;;;;;;;;;;6077515;23;20077;-89
2022/11/12 01:15:59;;;;;;;17.23;9.98;;;;;;;;;;6078984;23;20022;-92
2022/11/12 01:18:25;;;;;;;17.48;9.35;;;;;;;;;;6101579;23;20028;-94
2022/11/12 01:20:51;;;;;;;14.07;9.50;;;;;;;;;;6101740;23;20340;-93
2022/11/12 01:23:17;;;;;;;15.20;9.65;;;;;;;;;;6101744;23;20018;-92
2022/11/12 01:25:43;;;;;;;14.27;9.02;;;;;;;;;;6077660;23;20109;-92
2022/11/12 01:28:09;;;;;;;13.90;10.27;;;;;;;;;;6078025;23;20022;-92
2022/11/12 01:30:35;;;;;;;14.65;10.25;;;;;;;;;;6077602;23;20017;-92
2022/11/12 01:33:01;;;;;;;14.07;9.05;;;;;;;;;;6077414;23;20044;-91
2022/11/12 01:35:27;;;;;;;15.70;10.15;;;;;;;;;;6076650;23;20022;-90
2022/11/12 01:37:53;;;;;;;17.27;10.13;;;;;;;;;;6076194;23;20514;-90
2022/11/12 01:40:19;;;;;;;16.02;10.15;;;;;;;;;;6076750;23;20022;-90
2022/11/12 01:42:50;;;;;;;13.77;9.75;;;;;;;;;;6077101;23;20444;-89
2022/11/12 01:45:16;;;;;;;16.00;10.85;;;;;;;;;;6100640;23;20067;-88
2022/11/12 01:47:44;;;;;;;13.00;9.90;;;;;;;;;;6076816;23;20014;-87
2022/11/12 01:50:19;;;;;;;17.88;10.35;;;;;;;;;;6100658;23;20025;-89
2022/11/12 01:52:50;;;;;;;14.70;9.88;;;;;;;;;;6100671;23;20452;-91
2022/11/12 01:55:22;;;;;;;18.45;10.77;;;;;;;;;;6076996;23;20101;-90
2022/11/12 01:57:55;;;;;;;13.10;9.55;;;;;;;;;;6077265;23;20029;-92
2022/11/12 02:00:21;;;;;;;15.63;11.00;;;;;;;;;;6100806;23;20101;-92
2022/11/12 02:02:52;;;;;;;17.15;10.60;;;;;;;;;;6100825;23;20452;-91
2022/11/12 02:05:19;;;;;;;13.10;10.45;;;;;;;;;;6076734;23;20032;-90
2022/11/12 02:07:45;;;;;;;17.33;10.85;;;;;;;;;;6076873;23;20392;-91
2022/11/12 02:10:13;;;;;;;14.02;10.45;;;;;;;;;;6076846;23;20018;-91
2022/11/12 02:15:24;;;;;;;13.23;10.15;;;7.30;99.90;;;;;;6100729;23;20359;-91
2022/11/12 02:17:51;;;;;;;15.35;11.27;;;;;;;;;;6101068;23;20100;-91
2022/11/12 02:20:17;;;;;;;12.27;9.70;;;;;;;;;;6076952;23;20113;-90
2022/11/12 02:22:43;;;;;;;15.98;10.38;;;;;;;;;;6076839;23;20049;-91
2022/11/12 02:25:15;;;;;;;20.65;10.38;;;;;;;;;;6076713;23;20443;-91
2022/11/12 02:27:41;;;;;;;14.77;10.77;;;;;;;;;;6077493;23;20482;-92
2022/11/12 02:30:08;;;;;;;15.57;9.57;;;;;;;;;;6077548;23;20018;-92
2022/11/12 02:32:34;;;;;;;12.75;9.98;;;;;;;;;;6101346;23;20029;-92
2022/11/12 02:35:00;;;;;;;12.93;9.50;;;;;;;;;;6077408;23;20092;-94
2022/11/12 02:37:26;;;;;;;15.48;10.13;;;;;;;;;;6101260;23;20025;-92
2022/11/12 02:39:52;;;;;;;15.25;10.35;;;;;;;;;;6101580;23;20064;-92
2022/11/12 02:42:18;;;;;;;16.55;10.90;;;;;;;;;;6078883;23;20029;-93
2022/11/12 02:44:44;;;;;;;13.65;10.00;;;;;;;;;;6101551;23;20014;-94
2022/11/12 02:47:10;;;;;;;10.82;9.45;;;;;;;;;;6077373;23;20025;-94
2022/11/12 02:49:36;;;;;;;14.95;11.10;;;;;;;;;;6077758;23;20073;-95
2022/11/12 02:52:02;;;;;;;13.82;10.27;;;;;;;;;;6104253;23;20041;-92
2022/11/12 02:54:28;;;;;;;15.95;11.35;;;;;;;;;;6079513;23;20030;-94
2022/11/12 02:56:54;;;;;;;14.77;11.63;;;;;;;;;;6079297;23;20339;-94
2022/11/12 02:59:20;;;;;;;16.80;12.25;;;;;;;;;;6079821;23;20356;-94
2022/11/12 03:01:46;;;;;;;15.23;11.20;;;;;;;;;;6103447;23;20017;-92
2022/11/12 03:04:12;;;;;;;15.27;11.32;;;;;;;;;;6079357;23;20092;-95
2022/11/12 03:06:38;;;;;;;15.68;10.27;;;;;;;;;;6079670;23;20032;-94
2022/11/12 03:09:04;;;;;;;15.88;11.02;;;;;;;;;;6079508;23;20014;-87
2022/11/12 03:11:30;;;;;;;17.50;11.48;;;;;;;;;;6079265;23;20057;-91
2022/11/12 03:13:56;;;;;;;17.40;11.65;;;;;;;;;;6079288;23;20018;-90
2022/11/12 03:16:22;;;;;;;17.10;11.48;;;;;;;;;;6078048;23;20018;-91
2022/11/12 03:18:48;;;;;;;18.40;11.35;;;;;;;;;;6078129;23;20455;-89
2022/11/12 03:21:14;;;;;;;12.27;10.73;;;;;;;;;;6078052;23;20022;-90
2022/11/12 03:23:40;;;;;;;14.75;10.70;;;;;;;;;;6078214;23;20439;-90
2022/11/12 03:26:07;;;;;;;18.98;12.48;;;;;;;;;;6101874;23;20489;-89
2022/11/12 03:28:33;;;;;;;20.67;12.77;;;;;;;;;;6077537;23;20014;-89
2022/11/12 03:30:59;;;;;;;19.92;12.05;;;;;;;;;;6078024;23;20026;-90
2022/11/12 03:33:25;;;;;;;14.85;10.70;;;;;;;;;;6077460;23;20036;-91
2022/11/12 03:35:51;;;;;;;23.05;13.00;;;;;;;;;;6103126;23;20022;-90
2022/11/12 03:38:17;;;;;;;17.90;11.88;;;;;;;;;;6078052;23;20018;-90
2022/11/12 03:40:43;;;;;;;17.85;11.20;;;;;;;;;;6102728;23;20014;-91
2022/11/12 03:43:09;;;;;;;21.65;13.25;;;;;;;;;;6077976;23;20056;-89
2022/11/12 03:45:35;;;;;;;19.02;11.68;;;;;;;;;;6077763;23;20018;-90
2022/11/12 03:48:01;;;;;;;18.17;13.15;;;;;;;;;;6077982;23;20343;-89
2022/11/12 03:50:28;;;;;;;17.10;11.45;;;;;;;;;;6101734;23;20070;-89
2022/11/12 03:52:58;;;;;;;17.90;12.05;;;6.60;99.90;;;;;;6102118;23;20018;-89
2022/11/12 03:55:26;;;;;;;18.27;12.45;;;;;;;;;;6101613;23;20025;-90
2022/11/12 03:57:52;;;;;;;19.33;13.73;;;;;;;;;;6101422;23;20069;-90
2022/11/12 04:00:18;;;;;;;18.67;12.18;;;;;;;;;;6077593;23;20025;-89
2022/11/12 04:02:44;;;;;;;18.52;12.45;;;;;;;;;;6102496;23;20340;-89
2022/11/12 04:10:44;;;;;;;21.42;13.48;;;;;;;;;;6101468;23;20021;-88
2022/11/12 04:13:31;;;;;;;17.55;12.57;;;;;;;;;;6077442;23;20021;-91
2022/11/12 04:21:55;;;;;;;20.95;12.85;;;;;;;;;;6101458;23;20024;-91
2022/11/12 04:27:07;;;;;;;18.25;13.25;;;6.30;99.90;;;;;;6101405;23;20028;-91
2022/11/12 04:32:17;;;;;;;15.77;12.50;;;;;;;;;;6102060;23;20041;-95
2022/11/12 04:34:43;;;;;;;19.38;13.50;;;;;;;;;;6102560;23;20317;-94
2022/11/12 04:37:10;;;;;;;18.98;13.50;;;;;;;;;;6078153;23;20068;-93
2022/11/12 04:39:36;;;;;;;20.20;13.48;;;;;;;;;;6102343;23;20097;-93
2022/11/12 04:45:00;;;;;;;25.30;13.90;;;;;;;;;;6102317;23;20018;-94
2022/11/12 04:47:30;;;;;;;19.52;13.32;;;6.60;99.90;;;;;;6102049;23;20022;-93
2022/11/12 04:49:56;;;;;;;18.90;13.68;;;;;;;;;;6077866;23;20025;-93
2022/11/12 04:52:22;;;;;;;20.20;13.15;;;;;;;;;;6077741;23;20018;-90
2022/11/12 04:54:48;;;;;;;17.88;12.73;;;;;;;;;;6101912;23;20064;-91
2022/11/12 04:57:14;;;;;;;14.80;11.43;;;;;;;;;;6102123;23;20017;-91
2022/11/12 04:59:40;;;;;;;16.67;11.73;;;;;;;;;;6078051;23;20101;-92
2022/11/12 05:02:06;;;;;;;14.57;11.18;;;;;;;;;;6078045;23;20072;-95
2022/11/12 05:04:32;;;;;;;18.33;12.00;;;;;;;;;;6077868;23;20014;-93
2022/11/12 05:06:58;;;;;;;14.98;12.55;;;;;;;;;;6102135;23;20462;-90
2022/11/12 05:09:26;;;;;;;21.50;13.25;;;;;;;;;;6077906;23;20096;-93
2022/11/12 05:11:54;;;;;;;18.35;13.30;;;;;;;;;;6078090;23;20014;-94
2022/11/12 05:14:20;;;;;;;19.50;13.52;;;;;;;;;;6101537;23;20018;-92
2022/11/12 05:16:46;;;;;;;29.58;15.32;;;;;;;;;;6077770;23;20014;-96
2022/11/12 05:19:12;;;;;;;30.98;14.85;;;;;;;;;;6100855;23;20057;-90
2022/11/12 05:24:23;;;;;;;43.92;17.20;;;;;;;;;;6100809;23;20069;-90
2022/11/12 05:26:50;;;;;;;50.67;17.95;;;;;;;;;;6076984;23;20018;-86
2022/11/12 05:29:16;;;;;;;48.58;17.65;;;;;;;;;;6127323;23;20021;-91
2022/11/12 05:31:42;;;;;;;63.10;19.95;;;;;;;;;;6127082;23;20022;-90
2022/11/12 05:34:08;;;;;;;47.47;19.67;;;;;;;;;;6103264;23;20194;-91
2022/11/12 05:36:34;;;;;;;41.25;19.05;;;;;;;;;;6107843;23;20098;-90
2022/11/12 05:39:00;;;;;;;60.13;20.08;;;;;;;;;;6109053;23;20021;-90
2022/11/12 05:41:27;;;;;;;68.50;19.95;;;;;;;;;;6085889;23;20092;-90
2022/11/12 05:43:53;;;;;;;36.05;19.75;;;;;;;;;;6086020;23;20022;-89
2022/11/12 05:46:19;;;;;;;65.18;22.35;;;;;;;;;;6079287;23;20332;-87
2022/11/12 05:48:45;;;;;;;55.47;21.08;;;;;;;;;;6077896;23;20018;-87
2022/11/12 05:51:12;;;;;;;54.70;22.20;;;;;;;;;;6077056;23;20020;-89
2022/11/12 05:53:38;;;;;;;118.50;26.40;;;;;;;;;;6101022;23;20018;-90
2022/11/12 05:56:05;;;;;;;58.65;22.58;;;;;;;;;;6077294;23;20018;-91
2022/11/12 05:58:32;;;;;;;89.32;24.92;;;;;;;;;;6077685;23;20017;-89
2022/11/12 06:00:58;;;;;;;53.53;22.23;;;;;;;;;;6078656;23;20025;-91
2022/11/12 06:03:24;;;;;;;85.93;24.13;;;;;;;;;;6076792;23;20105;-87
2022/11/12 06:05:51;;;;;;;113.90;24.38;;;;;;;;;;6076702;23;20022;-89
2022/11/12 06:08:17;;;;;;;124.20;23.55;;;;;;;;;;6077641;23;20522;-93
2022/11/12 06:10:49;;;;;;;82.28;22.10;;;;;;;;;;6077580;23;20022;-91
2022/11/12 06:13:15;;;;;;;75.88;22.63;;;;;;;;;;6077534;23;20444;-95
2022/11/12 06:15:42;;;;;;;66.55;21.90;;;;;;;;;;6077965;23;20439;-91
2022/11/12 06:18:08;;;;;;;75.10;23.48;;;;;;;;;;6101450;23;20025;-94
2022/11/12 06:20:34;;;;;;;76.05;22.85;;;;;;;;;;6077551;23;20049;-93
2022/11/12 06:23:00;;;;;;;67.10;24.00;;;;;;;;;;6103019;23;20447;-94
2022/11/12 06:25:26;;;;;;;66.82;22.80;;;;;;;;;;6102828;23;20014;-93
2022/11/12 06:27:53;;;;;;;49.70;24.33;;;;;;;;;;6079517;23;20021;-91
2022/11/12 06:30:19;;;;;;;52.78;24.25;;;;;;;;;;6079290;23;20073;-92
2022/11/12 06:32:49;;;;;;;56.03;24.38;;;;;;;;;;6103410;23;20029;-93
2022/11/12 06:35:15;;;;;;;61.13;24.05;;;;;;;;;;6079215;23;20523;-93
2022/11/12 06:37:42;;;;;;;51.88;24.13;;;;;;;;;;6103373;23;20017;-92
2022/11/12 06:40:08;;;;;;;79.97;23.70;;;;;;;;;;6079502;23;20017;-95
2022/11/12 06:42:34;;;;;;;76.68;24.73;;;;;;;;;;6103333;23;20018;-93
2022/11/12 06:45:00;;;;;;;67.88;23.38;;;;;;;;;;6079392;23;20025;-94
2022/11/12 06:47:26;;;;;;;56.20;23.50;;;;;;;;;;6103241;23;20463;-95
2022/11/12 06:49:52;;;;;;;71.05;24.25;;;;;;;;;;6128969;23;20025;-95
2022/11/12 06:52:18;;;;;;;60.10;23.67;;;;;;;;;;6129421;23;20022;-94
2022/11/12 06:54:44;;;;;;;72.35;24.85;;;;;;;;;;6103442;23;20029;-95
2022/11/12 06:57:10;;;;;;;103.97;26.10;;;;;;;;;;6129378;23;20028;-93
2022/11/12 06:59:36;;;;;;;104.45;25.90;;;;;;;;;;6103638;23;20045;-94
2022/11/12 07:02:03;;;;;;;111.70;26.48;;;;;;;;;;6102201;23;20029;-87
2022/11/12 07:04:29;;;;;;;157.82;31.75;;;;;;;;;;6078089;23;20072;-88
2022/11/12 07:06:55;;;;;;;199.40;32.33;;;;;;;;;;6078409;23;20093;-90
2022/11/12 07:09:21;;;;;;;102.20;28.58;;;;;;;;;;6078263;23;20076;-90
2022/11/12 07:11:47;;;;;;;148.05;30.90;;;;;;;;;;6101856;23;20053;-90
2022/11/12 07:14:13;;;;;;;97.18;23.88;;;;;;;;;;6078380;23;20022;-91
2022/11/12 07:16:39;;;;;;;109.55;26.88;;;;;;;;;;6102037;23;20020;-91
2022/11/12 07:19:05;;;;;;;61.22;25.38;;;;;;;;;;6078376;23;20018;-90
2022/11/12 07:21:31;;;;;;;54.00;24.80;;;;;;;;;;6102408;23;20045;-87
2022/11/12 07:24:03;;;;;;;156.38;30.83;;;;;;;;;;6078413;23;20097;-90
2022/11/12 07:26:29;;;;;;;108.00;28.38;;;;;;;;;;6079734;23;20452;-87
2022/11/12 07:28:56;;;;;;;79.80;26.15;;;;;;;;;;6104908;23;20017;-89
2022/11/12 07:31:28;;;;;;;72.00;23.55;;;;;;;;;;6080875;23;20018;-90
2022/11/12 07:33:54;;;;;;;67.03;24.58;;;;;;;;;;6104211;23;20069;-91
2022/11/12 07:36:20;;;;;;;94.68;30.90;;;;;;;;;;6079867;23;20025;-91
2022/11/12 07:38:47;;;;;;;139.52;32.40;;;;;;;;;;6102782;23;20068;-92
2022/11/12 07:41:14;;;;;;;66.00;24.23;;;;;;;;;;6102105;23;20018;-90
2022/11/12 07:43:40;;;;;;;91.57;26.42;;;;;;;;;;6078057;23;20029;-89
2022/11/12 07:46:07;;;;;;;66.50;25.20;;;;;;;;;;6077957;23;20024;-90
2022/11/12 07:48:34;;;;;;;132.27;30.55;;;;;;;;;;6077759;23;20018;-87
2022/11/12 07:51:01;;;;;;;124.93;32.22;;;;;;;;;;6077637;23;20495;-90
2022/11/12 07:53:27;;;;;;;56.67;25.42;;;;;;;;;;6101654;23;20022;-86
2022/11/12 07:55:54;;;;;;;102.95;28.95;;;;;;;;;;6127438;23;20377;-89
2022/11/12 07:58:20;;;;;;;105.07;29.50;;;;;;;;;;6127730;23;20022;-90
2022/11/12 08:00:46;;;;;;;123.60;34.60;;;;;;;;;;6127834;23;20047;-89
2022/11/12 08:03:12;;;;;;;115.65;30.95;;;;;;;;;;6102142;23;20028;-87
2022/11/12 08:05:38;;;;;;;66.85;26.10;;;;;;;;;;6077758;23;20420;-89
2022/11/12 08:08:04;;;;;;;96.13;30.77;;;;;;;;;;6128067;23;20021;-90
2022/11/12 08:10:30;;;;;;;140.82;33.10;;;;;;;;;;6127490;23;20340;-89
2022/11/12 08:12:56;;;;;;;124.35;30.40;;;;;;;;;;6077431;23;20045;-91
2022/11/12 08:15:23;;;;;;;108.00;29.35;;;;;;;;;;6077587;23;20053;-90
2022/11/12 08:17:49;;;;;;;86.72;26.67;;;;;;;;;;6101586;23;20441;-91
2022/11/12 08:20:15;;;;;;;79.63;25.15;;;;;;;;;;6078441;23;20088;-89
2022/11/12 08:22:41;;;;;;;69.82;26.73;;;;;;;;;;6077580;23;20467;-90
2022/11/12 08:25:07;;;;;;;86.63;26.00;;;;;;;;;;6077503;23;20018;-90
2022/11/12 08:27:34;;;;;;;70.53;24.48;;;;;;;;;;6077868;23;20478;-93
2022/11/12 08:30:00;;;;;;;75.95;24.80;;;;;;;;;;6078636;23;20519;-91
2022/11/12 08:32:26;;;;;;;95.35;24.52;;;;;;;;;;6102030;23;20045;-92
2022/11/12 08:34:52;;;;;;;71.72;25.27;;;;;;;;;;6077976;23;20464;-91
2022/11/12 08:37:18;;;;;;;103.75;27.90;;;;;;;;;;6077856;23;20029;-91
2022/11/12 08:39:44;;;;;;;104.18;26.02;;;;;;;;;;6077831;23;20022;-92
2022/11/12 08:42:10;;;;;;;87.78;26.27;;;;;;;;;;6101665;23;20013;-92
2022/11/12 08:44:36;;;;;;;76.43;25.38;;;;;;;;;;6077877;23;20080;-91
2022/11/12 08:47:02;;;;;;;67.93;23.38;;;;;;;;;;6077803;23;20470;-88
2022/11/12 08:49:29;;;;;;;63.60;25.10;;;;;;;;;;6079099;23;20029;-92
2022/11/12 08:51:55;;;;;;;104.63;28.48;;;;;;;;;;6077998;23;20014;-91
2022/11/12 08:54:21;;;;;;;55.13;25.95;;;;;;;;;;6078739;23;20018;-94
2022/11/12 08:56:47;;;;;;;98.45;26.63;;;;;;;;;;6078260;23;20025;-91
2022/11/12 08:59:13;;;;;;;120.18;31.00;;;;;;;;;;6077934;23;20022;-88
2022/11/12 09:01:39;;;;;;;89.28;28.48;;;;;;;;;;6077277;23;20018;-91
2022/11/12 09:04:08;;;;;;;87.55;28.67;;;;;;;;;;6101966;23;20018;-92
2022/11/12 09:06:34;;;;;;;76.28;29.40;;;;;;;;;;6101113;23;20081;-91
2022/11/12 09:09:00;;;;;;;109.82;31.10;;;;;;;;;;6077474;23;20347;-91
2022/11/12 09:11:26;;;;;;;117.03;32.95;;;;;;;;;;6101042;23;20352;-91
2022/11/12 09:13:53;;;;;;;99.03;31.55;;;;;;;;;;6101127;23;20026;-92
2022/11/12 09:16:20;;;;;;;93.93;31.33;;;;;;;;;;6077218;23;20100;-91
2022/11/12 09:18:47;;;;;;;110.18;32.30;;;;;;;;;;6076945;23;20018;-89
2022/11/12 09:21:13;;;;;;;133.18;35.17;;;;;;;;;;6077164;23;20036;-89
2022/11/12 09:23:39;;;;;;;113.20;33.03;;;;;;;;;;6077083;23;20018;-90
2022/11/12 09:26:06;;;;;;;126.53;36.20;;;;;;;;;;6101019;23;20104;-91
2022/11/12 09:28:32;;;;;;;127.22;36.60;;;;;;;;;;6101790;23;20085;-90
2022/11/12 09:30:58;;;;;;;143.80;40.58;;;;;;;;;;6078316;23;20320;-91
2022/11/12 09:33:26;;;;;;;130.93;36.67;;;;;;;;;;6076885;23;20061;-91
2022/11/12 09:35:52;;;;;;;146.40;37.35;;;;;;;;;;6078171;23;20093;-90
2022/11/12 09:38:19;;;;;;;102.55;32.72;;;;;;;;;;6076764;23;20483;-89
2022/11/12 09:40:51;;;;;;;132.88;36.20;;;;;;;;;;6077163;23;20399;-89
2022/11/12 09:43:27;;;;;;;142.40;37.70;;;;;;;;;;6076990;23;20097;-92
2022/11/12 09:45:53;;;;;;;108.18;33.83;;;;;;;;;;6101535;23;20068;-87
2022/11/12 09:48:25;;;;;;;101.47;35.40;;;;;;;;;;6076558;23;20056;-89
2022/11/12 09:50:54;;;;;;;117.93;36.08;;;;;;;;;;6126923;23;20018;-89
2022/11/12 09:53:37;;;;;;;130.77;36.45;;;;;;;;;;6100615;23;20018;-90
2022/11/12 09:56:07;;;;;;;107.70;35.20;;;;;;;;;;6077795;23;20021;-91
2022/11/12 09:58:33;;;;;;;116.95;34.50;;;;;;;;;;6101034;23;20022;-92
2022/11/12 10:01:19;;;;;;;113.30;35.88;;;;;;;;;;6081291;23;20021;-90
2022/11/12 10:03:45;;;;;;;102.68;33.92;;;;;;;;;;5989191;23;20075;-91
2022/11/12 10:06:22;;;;;;;106.25;33.38;;;;;;;;;;5966021;23;20462;-91
2022/11/12 10:09:00;;;;;;;107.93;32.08;;;;;;;;;;5966679;23;20026;-90
2022/11/12 10:14:29;;;;;;;81.57;33.30;;;;;;;;;;5988961;23;20346;-90
2022/11/12 10:16:55;;;;;;;77.93;31.38;;;;;;;;;;5966677;23;20027;-91
2022/11/12 10:19:21;;;;;;;80.68;31.77;;;;;;;;;;5966310;23;20024;-89
2022/11/12 10:21:52;;;;;;;80.88;30.63;;;;;;;;;;5966111;23;20016;-90
2022/11/12 10:24:20;;;;;;;96.25;31.17;;;;;;;;;;5966384;23;20063;-90
2022/11/12 10:26:48;;;;;;;75.32;29.50;;;;;;;;;;5989158;23;20031;-88
2022/11/12 10:29:29;;;;;;;100.45;31.58;;;;;;;;;;5989894;23;20416;-90
2022/11/12 10:31:55;;;;;;;95.20;31.58;;;;;;;;;;5989615;23;20449;-90
2022/11/12 10:34:22;;;;;;;91.63;31.85;;;;;;;;;;5988976;23;20094;-89
2022/11/12 10:36:50;;;;;;;75.93;30.42;;;;;;;;;;5988807;23;20019;-87
2022/11/12 10:39:37;;;;;;;60.50;29.83;;;;;;;;;;5966529;23;20023;-90
2022/11/12 10:42:08;;;;;;;81.13;29.67;;;;;;;;;;6080090;23;20042;-87
2022/11/12 10:44:34;;;;;;;87.78;30.90;;;;;;;;;;6104316;23;20453;-91
2022/11/12 10:47:19;;;;;;;85.00;30.83;;;;;;;;;;6130778;23;20032;-90
2022/11/12 10:49:58;;;;;;;94.00;31.75;;;;;;;;;;6080665;23;20372;-89
2022/11/12 10:52:24;;;;;;;111.80;31.50;;;;;;;;;;6080066;23;20436;-91
2022/11/12 10:55:02;;;;;;;67.65;29.13;;;;;;;;;;6104546;23;20053;-90
2022/11/12 10:57:28;;;;;;;118.53;30.70;;;;;;;;;;6079814;23;20474;-88
2022/11/12 11:00:09;;;;;;;78.90;29.27;;;;;;;;;;6104955;23;20028;-91
2022/11/12 11:02:35;;;;;;;61.45;28.83;;;;;;;;;;6081282;23;20060;-89
2022/11/12 11:05:19;;;;;;;67.43;31.40;;;;;;;;;;6103840;23;20018;-89
2022/11/12 11:07:49;;;;;;;77.85;29.25;;;;;;;;;;6081182;23;20289;-88
2022/11/12 11:10:23;;;;;;;68.93;29.20;;;;;;;;;;6079663;23;20018;-88
2022/11/12 11:13:07;;;;;;;57.58;28.17;;;;;;;;;;6102327;23;20025;-90
2022/11/12 11:15:33;;;;;;;62.05;29.88;;;;;;;;;;6078913;23;20018;-88
2022/11/12 11:17:59;;;;;;;85.57;30.80;;;;;;;;;;6078354;23;20084;-91
2022/11/12 11:20:35;;;;;;;70.97;27.23;;;;;;;;;;6078534;23;20096;-91
2022/11/12 11:23:19;;;;;;;64.28;30.02;;;;;;;;;;6102511;23;20022;-87
2022/11/12 11:25:45;;;;;;;;;;;8.50;99.90;;;;;;6102844;23;20061;-88
2022/11/12 11:28:22;;;;;;;69.00;29.00;;;;;;;;;;6128931;23;20306;-87
2022/11/12 11:31:01;;;;;;;60.50;31.08;;;;;;;;;;6078073;23;20027;-91
2022/11/12 11:33:27;;;;;;;77.57;29.65;;;;;;;;;;6079107;23;20021;-92
2022/11/12 11:36:00;;;;;;;62.42;31.25;;;;;;;;;;6079021;23;20444;-93
2022/11/12 11:38:33;;;;;;;65.10;29.60;;;;;;;;;;6102938;23;20029;-93
2022/11/12 11:41:02;;;;;;;;;;;8.50;99.90;;;;;;6079677;23;20022;-94
2022/11/12 11:43:38;;;;;;;59.20;28.20;;;;;;;;;;6102947;23;19952;-94
2022/11/12 11:46:23;;;;;;;81.07;28.77;;;;;;;;;;6080133;23;20049;-93
2022/11/12 11:48:49;;;;;;;;;;;;;;;;;;6079092;23;20030;-93
2022/11/12 11:51:23;;;;;;;73.35;29.95;;;;;;;;;;6102891;23;19963;-94
2022/11/12 11:54:19;;;;;;;61.40;30.05;;;8.60;99.90;;;;;;6102907;23;20077;-93
2022/11/12 11:56:46;;;;;;;60.78;30.10;;;;;;;;;;6079369;23;20029;-95
2022/11/12 11:59:23;;;;;;;55.97;28.80;;;;;;;;;;6103411;23;20017;-94
2022/11/12 12:01:59;;;;;;;59.35;30.42;;;;;;;;;;6103874;23;20050;-93
2022/11/12 12:04:44;;;;;;;52.97;29.23;;;;;;;;;;6103324;23;20035;-95
2022/11/12 12:07:34;;;;;;;54.50;29.33;;;;;;;;;;6104170;23;20014;-93
2022/11/12 12:10:11;;;;;;;54.22;30.80;;;;;;;;;;6081955;23;20053;-94
2022/11/12 12:13:00;;;;;;;48.30;30.02;;;;;;;;;;6105743;23;20073;-94
2022/11/12 12:15:29;;;;;;;53.70;28.25;;;;;;;;;;6104612;23;20018;-92
2022/11/12 12:18:08;;;;;;;51.15;28.95;;;;;;;;;;6080282;23;20029;-93
2022/11/12 12:20:48;;;;;;;48.13;27.75;;;;;;;;;;6104504;23;20470;-95
2022/11/12 12:23:35;;;;;;;42.67;25.88;;;;;;;;;;6080597;23;20400;-92
2022/11/12 12:26:02;;;;;;;38.78;25.02;;;;;;;;;;6081720;23;20062;-93
2022/11/12 12:28:34;;;;;;;40.30;25.38;;;;;;;;;;6082713;23;20053;-93
2022/11/12 12:31:15;;;;;;;45.25;25.85;;;;;;;;;;6083316;23;20343;-94
2022/11/12 12:33:59;;;;;;;44.72;26.27;;;;;;;;;;6107038;23;20018;-94
2022/11/12 12:36:55;;;;;;;38.42;26.73;;;;;;;;;;6106900;23;20481;-92
2022/11/12 12:39:40;;;;;;;43.33;26.45;;;;;;;;;;5991680;23;20052;-89
2022/11/12 12:42:14;;;;;;;39.47;25.98;;;;;;;;;;5992329;23;20028;-95
2022/11/12 12:45:02;;;;;;;45.17;28.85;;;;;;;;;;5968512;23;20109;-94
2022/11/12 12:47:30;;;;;;;48.95;28.02;;;;;;;;;;5968301;23;20074;-90
2022/11/12 12:50:00;;;;;;;41.58;26.63;;;;;;;;;;5968618;23;20339;-91
2022/11/12 12:52:26;;;;;;;48.00;28.33;;;;;;;;;;5965055;23;20020;-90
2022/11/12 12:54:52;;;;;;;42.35;26.60;;;;;;;;;;5988117;23;20020;-87
2022/11/12 12:57:51;;;;;;;40.72;26.48;;;;;;;;;;5964855;23;20016;-88
2022/11/12 13:00:40;;;;;;;43.70;27.15;;;;;;;;;;5905540;23;20021;-87
2022/11/12 13:03:09;;;;;;;45.65;29.38;;;;;;;;;;5905446;24;20017;-91
2022/11/12 13:05:39;;;;;;;47.45;28.77;;;;;;;;;;5882729;24;20379;-90
2022/11/12 13:08:14;;;;;;;45.05;29.25;;;;;;;;;;5905035;24;20025;-90
2022/11/12 13:10:40;;;;;;;43.70;27.55;;;;;;;;;;5905578;24;20032;-88
2022/11/12 13:13:06;;;;;;;46.00;27.55;;;;;;;;;;5905858;24;20025;-91
2022/11/12 13:15:43;;;;;;;46.85;28.33;;;;;;;;;;5951712;23;20318;-91
2022/11/12 13:18:09;;;;;;;42.33;28.45;;;;;;;;;;6016036;23;20059;-90
2022/11/12 13:20:40;;;;;;;44.33;27.77;;;;;;;;;;5992479;23;20416;-91
2022/11/12 13:23:10;;;;;;;44.40;28.27;;;;;;;;;;5992255;23;20024;-91
2022/11/12 13:25:37;;;;;;;50.38;29.23;;;;;;;;;;5992232;23;20520;-91
2022/11/12 13:28:04;;;;;;;40.08;27.63;;;;;;;;;;6015961;23;20453;-91
2022/11/12 13:30:31;;;;;;;45.67;28.90;;;;;;;;;;6017415;23;20015;-89
2022/11/12 13:32:58;;;;;;;39.55;26.17;;;;;;;;;;6039839;23;20023;-90
2022/11/12 13:35:28;;;;;;;39.78;24.90;;;;;;;;;;6016395;23;20027;-91
2022/11/12 13:38:04;;;;;;;37.50;25.77;;;;;;;;;;6078668;23;20046;-90
2022/11/12 13:40:48;;;;;;;37.80;25.25;;;;;;;;;;6078832;23;20070;-90
2022/11/12 13:43:14;;;;;;;39.72;25.50;;;;;;;;;;6103149;23;20017;-90
2022/11/12 13:45:41;;;;;;;39.85;25.55;;;;;;;;;;6079722;23;20014;-91
2022/11/12 13:48:08;;;;;;;38.83;25.60;;;;;;;;;;6079454;23;20025;-91
2022/11/12 13:50:34;;;;;;;34.05;22.67;;;;;;;;;;6130315;23;20053;-90
2022/11/12 13:53:01;;;;;;;36.38;23.88;;;;;;;;;;6080615;23;20069;-90
2022/11/12 13:55:27;;;;;;;35.67;25.02;;;;;;;;;;6080379;23;20447;-90
2022/11/12 13:57:56;;;;;;;33.42;24.90;;;;;;;;;;6129624;23;20013;-89
2022/11/12 14:00:24;;;;;;;33.38;24.17;;;;;;;;;;6079994;23;20014;-91
2022/11/12 14:02:54;;;;;;;39.45;25.13;;;;;;;;;;6079047;23;20053;-90
2022/11/12 14:05:25;;;;;;;38.47;24.83;;;;;;;;;;6128703;23;20018;-89
2022/11/12 14:08:01;;;;;;;34.92;25.02;;;;;;;;;;6080063;23;20022;-89
2022/11/12 14:10:54;;;;;;;36.35;24.52;;;;;;;;;;6103369;23;20025;-89
2022/11/12 14:13:47;;;;;;;38.00;24.75;;;10.00;99.90;;;;;;6129460;23;20022;-90
2022/11/12 14:16:20;;;;;;;35.10;24.70;;;;;;;;;;6078821;23;20018;-87
2022/11/12 14:19:23;;;;;;;37.90;24.67;;;9.90;99.90;;;;;;6102669;23;20735;-89
2022/11/12 14:21:59;;;;;;;45.17;25.13;;;;;;;;;;6102949;23;20026;-90
2022/11/12 14:24:25;;;;;;;32.95;23.45;;;;;;;;;;6078254;23;20024;-90
2022/11/12 14:26:51;;;;;;;35.60;23.45;;;;;;;;;;6078764;23;20096;-90
2022/11/12 14:29:21;;;;;;;35.00;23.95;;;;;;;;;;6103774;23;20077;-90
2022/11/12 14:31:59;;;;;;;34.30;23.85;;;;;;;;;;6128342;23;20440;-89
2022/11/12 14:34:30;;;;;;;36.90;24.05;;;;;;;;;;6128872;23;20022;-89
2022/11/12 14:36:59;;;;;;;36.65;23.80;;;;;;;;;;6102683;23;20447;-90
2022/11/12 14:39:26;;;;;;;36.40;25.38;;;;;;;;;;6080315;23;20030;-90
2022/11/12 14:41:54;;;;;;;33.65;24.30;;;;;;;;;;6129319;23;20367;-89
2022/11/12 14:44:27;;;;;;;36.58;24.58;;;;;;;;;;6102585;23;20328;-91
2022/11/12 14:46:57;;;;;;;32.45;22.85;;;;;;;;;;6103284;23;20325;-92
2022/11/12 14:49:36;;;;;;;39.83;24.55;;;;;;;;;;6104315;23;20018;-91
2022/11/12 14:52:22;;;;;;;39.20;25.33;;;;;;;;;;6104278;23;20060;-91